Time;durP1;ratioP1;P1;durP2;ratioP2;P2;SDS_P1;SDS_P2;PMS_P1;PMS_P2;Temp;Humidity;BMP_temperature;BMP_pressure;BME280_temperature;BME280_humidity;BME280_pressure;Samples;Min_cycle;Max_cycle;Signal;HPM_P1;HPM_P2
2024/02/20 05:46:39;;;;;;;;;;;;;;;-3.14;100.00;101226.76;110216;1270;23221;-55
2024/02/20 05:49:06;;;;;;;;;;;;;;;-3.06;100.00;101226.41;110303;1269;23246;-46
2024/02/20 05:51:33;;;;;;;;;;;;;;;-2.99;100.00;101220.80;110339;1269;22484;-56
2024/02/20 05:54:00;;;;;;;;;;;;;;;-2.90;100.00;101216.58;110277;1269;23157;-47
2024/02/20 05:56:27;;;;;;;;;;;;;;;-2.78;99.95;101222.19;110299;1269;22460;-56
2024/02/20 05:58:53;;;;;;;;;;;;;;;-2.67;99.13;101221.41;110260;1275;22408;-57
2024/02/20 06:01:20;;;;;;;;;;;;;;;-2.58;98.11;101225.22;110273;1259;22434;-55
2024/02/20 06:03:46;;;;;;;;;;;;;;;-2.53;97.36;101222.05;110228;1273;22428;-57
2024/02/20 06:06:13;;;;;;;;;;;;;;;-2.45;96.42;101223.25;110251;1269;22519;-57
2024/02/20 06:08:41;;;;;;;;;;;;;;;-2.38;95.41;101217.70;110229;1270;22454;-47
2024/02/20 06:11:15;;;;;;;;;;;;;;;-2.31;94.58;101222.44;110177;1270;23260;-48
2024/02/20 06:13:42;;;;;;;;;;;;;;;-2.24;93.72;101219.83;110179;1268;23267;-56
2024/02/20 06:16:08;;;;;;;;;;;;;;;-2.21;92.67;101216.30;110100;1268;22443;-47
2024/02/20 06:18:35;;;;;;;;;;;;;;;-2.21;91.65;101216.30;110059;1266;23200;-48
2024/02/20 06:21:02;;;;;;;;;;;;;;;-2.20;91.04;101211.40;110099;1273;22562;-55
2024/02/20 06:23:44;;;;;;;;;;;;;;;-2.20;90.64;101208.50;110092;1262;22445;-58
2024/02/20 06:26:11;;;;;;;;;;;;;;;-2.17;90.41;101208.50;109634;1273;23211;-55
2024/02/20 06:28:44;;;;;;;;;;;;;;;-2.14;90.14;101204.77;109784;1273;22456;-50
2024/02/20 06:39:44;;;;;;;;;;;;;;;-2.05;89.94;101201.08;110204;1270;22508;-57
2024/02/20 06:43:10;;;;;;;;;;;;;;;-1.97;89.88;101202.27;110016;1276;23315;-48
2024/02/20 06:46:40;;;;;;;;;;;;;;;-1.90;89.81;101202.92;109886;1272;22449;-47
2024/02/20 06:49:40;;;;;;;;;;;;;;;-1.81;90.19;101201.95;110176;1269;22414;-52
2024/02/20 06:52:26;;;;;;;;;;;;;;;-1.68;89.42;101204.16;110051;1266;22421;-48
2024/02/20 06:55:00;;;;;;;;;;;;;;;-1.61;87.71;101195.54;109957;1277;22576;-56
2024/02/20 06:57:31;;;;;;;;;;;;;;;-1.53;87.57;101198.76;109980;1270;23160;-49
2024/02/20 07:00:04;;;;;;;;;;;;;;;-1.47;87.01;101198.98;109891;1275;23664;-47
2024/02/20 07:02:32;;;;;;;;;;;;;;;-1.41;86.75;101198.80;109805;1265;23741;-56
2024/02/20 07:05:00;;;;;;;;;;;;;;;-1.36;86.15;101198.42;109861;1277;23167;-50
2024/02/20 07:07:41;;;;;;;;;;;;;;;-1.31;86.53;101202.36;110014;1270;23504;-46
2024/02/20 07:11:04;;;;;;;;;;;;;;;-1.22;85.06;101200.51;109971;1270;22680;-49
2024/02/20 07:13:49;;;;;;;;;;;;;;;-1.14;83.60;101199.13;110122;1269;23139;-50
2024/02/20 07:16:45;;;;;;;;;;;;;;;-1.08;83.68;101196.06;110037;1275;22415;-56
2024/02/20 07:23:14;;;;;;;;;;;;;;;-0.93;82.22;101200.70;109809;1273;22573;-48
2024/02/20 07:26:41;;;;;;;;;;;;;;;-0.83;81.44;101195.15;109917;1275;23006;-49
2024/02/20 07:29:43;;;;;;;;;;;;;;;-0.74;80.01;101189.33;109866;1273;22456;-47
2024/02/20 07:32:10;;;;;;;;;;;;;;;-0.69;79.53;101182.99;110081;1269;22433;-48
2024/02/20 07:34:40;;;;;;;;;;;;;;;-0.63;78.92;101189.16;110135;1275;22506;-48
2024/02/20 07:37:20;;;;;;;;;;;;;;;-0.55;79.53;101187.73;109908;1271;22448;-49
2024/02/20 07:39:48;;;;;;;;;;;;;;;-0.48;78.71;101191.38;110222;1275;22437;-47
2024/02/20 07:42:14;;;;;;;;;;;;;;;-0.44;76.85;101197.80;110157;1266;22743;-56
2024/02/20 07:44:43;;;;;;;;;;;;;;;-0.43;75.74;101201.80;110167;1273;22521;-57
2024/02/20 07:47:10;;;;;;;;;;;;;;;-0.40;75.18;101208.16;109789;1272;22928;-57
2024/02/20 07:49:45;;;;;;;;;;;;;;;-0.32;75.67;101206.56;110119;1270;22424;-57
2024/02/20 07:52:12;;;;;;;;;;;;;;;-0.28;75.66;101206.65;110138;1271;23066;-55
2024/02/20 07:54:40;;;;;;;;;;;;;;;-0.29;75.23;101212.08;110156;1273;22451;-57
2024/02/20 07:57:07;;;;;;;;;;;;;;;-0.37;74.33;101213.64;110138;1271;22442;-57
2024/02/20 07:59:35;;;;;;;;;;;;;;;-0.45;75.48;101207.39;110148;1273;22704;-58
2024/02/20 08:02:07;;;;;;;;;;;;;;;-0.43;75.56;101212.64;110116;1272;23281;-57
2024/02/20 08:04:36;;;;;;;;;;;;;;;-0.43;76.30;101208.14;110133;1273;22868;-58
2024/02/20 08:07:03;;;;;;;;;;;;;;;-0.40;76.54;101209.20;109943;1273;22431;-56
2024/02/20 08:09:35;;;;;;;;;;;;;;;-0.34;75.85;101212.30;109290;1273;1043031;-59
2024/02/20 08:12:13;;;;;;;;;;;;;;;-0.31;74.14;101215.39;110017;1271;22477;-57
2024/02/20 08:14:52;;;;;;;;;;;;;;;-0.26;75.20;101212.23;109886;1273;22498;-48
2024/02/20 08:17:45;;;;;;;;;;;;;;;-0.16;75.50;101207.50;109913;1271;22447;-55
2024/02/20 08:21:26;;;;;;;;;;;;;;;-0.05;72.75;101207.99;109997;1276;22451;-49
2024/02/20 08:29:08;;;;;;;;;;;;;;;0.11;71.02;101207.28;109715;1270;22428;-61
2024/02/20 08:32:43;;;;;;;;;;;;;;;0.35;70.34;101204.35;109851;1277;22647;-61
2024/02/20 08:35:37;;;;;;;;;;;;;;;0.49;69.85;101200.52;109983;1270;22454;-49
2024/02/20 08:38:31;;;;;;;;;;;;;;;0.64;69.56;101198.39;109912;1278;22443;-51
2024/02/20 08:41:02;;;;;;;;;;;;;;;0.73;68.80;101194.09;109835;1278;22503;-59
2024/02/20 08:44:11;;;;;;;;;;;;;;;0.76;67.59;101188.23;109900;1272;22436;-58
2024/02/20 08:46:53;;;;;;;;;;;;;;;0.73;67.50;101190.64;109894;1276;22544;-47
2024/02/20 08:49:23;;;;;;;;;;;;;;;0.65;64.82;101190.23;109911;1276;22538;-58
2024/02/20 08:52:01;;;;;;;;;;;;;;;0.53;62.46;101186.30;110113;1269;22441;-49
2024/02/20 08:54:55;;;;;;;;;;;;;;;0.41;63.43;101184.81;109967;1273;22406;-48
2024/02/20 09:01:37;;;;;;;;;;;;;;;0.33;62.92;101193.96;109758;1278;22458;-49
2024/02/20 09:04:27;;;;;;;;;;;;;;;0.32;61.85;101190.62;109702;1275;23485;-58
2024/02/20 09:07:07;;;;;;;;;;;;;;;0.26;61.61;101189.30;109707;1276;22475;-57
2024/02/20 09:09:36;;;;;;;;;;;;;;;0.18;61.45;101181.46;109562;1279;22485;-49
2024/02/20 09:12:12;;;;;;;;;;;;;;;0.15;61.22;101191.90;109580;1276;23122;-57
2024/02/20 09:15:13;;;;;;;;;;;;;;;0.11;60.70;101190.99;109625;1281;22446;-48
2024/02/20 09:17:51;;;;;;;;;;;;;;;0.11;61.64;101182.23;109344;1276;23139;-50
2024/02/20 09:20:59;;;;;;;;;;;;;;;0.17;61.17;101178.84;109502;1275;23003;-58
2024/02/20 09:23:37;;;;;;;;;;;;;;;0.18;61.67;101179.73;109375;1276;23254;-47
2024/02/20 09:26:36;;;;;;;;;;;;;;;0.21;62.26;101181.96;109477;1278;22478;-49
2024/02/20 09:29:31;;;;;;;;;;;;;;;0.22;60.50;101179.30;109591;1282;22963;-58
2024/02/20 09:35:58;;;;;;;;;;;;;;;0.28;61.43;101187.14;109606;1275;22450;-57
2024/02/20 09:38:25;;;;;;;;;;;;;;;0.26;61.44;101184.82;109972;1272;23283;-58
2024/02/20 09:41:01;;;;;;;;;;;;;;;0.21;61.26;101185.42;110093;1272;22440;-57
2024/02/20 09:43:31;;;;;;;;;;;;;;;0.21;62.00;101177.01;109929;1273;22426;-58
2024/02/20 09:46:10;;;;;;;;;;;;;;;0.25;62.56;101173.98;110031;1275;22461;-49
2024/02/20 09:48:37;;;;;;;;;;;;;;;0.26;62.26;101172.98;110011;1273;22989;-47
2024/02/20 09:51:05;;;;;;;;;;;;;;;0.25;61.66;101171.90;109935;1273;22457;-48
2024/02/20 09:53:46;;;;;;;;;;;;;;;0.22;61.75;101166.26;109997;1278;22415;-57
2024/02/20 09:56:35;;;;;;;;;;;;;;;0.24;62.39;101174.96;109937;1270;23659;-48
2024/02/20 10:00:06;;;;;;;;;;;;;;;0.25;62.64;101170.89;109950;1271;22457;-51
2024/02/20 10:02:43;;;;;;;;;;;;;;;0.29;62.44;101169.70;109971;1273;23140;-57
2024/02/20 10:08:57;;;;;;;;;;;;;;;0.32;60.19;101170.89;109869;1270;22494;-58
2024/02/20 10:11:25;;;;;;;;;;;;;;;0.31;60.24;101168.29;109816;1270;22440;-57
2024/02/20 10:13:58;;;;;;;;;;;;;;;0.31;60.08;101170.70;109985;1273;22412;-57
2024/02/20 10:17:07;;;;;;;;;;;;;;;0.32;61.01;101164.55;109954;1278;23361;-55
2024/02/20 10:20:10;;;;;;;;;;;;;;;0.37;60.82;101164.52;110105;1276;22462;-57
2024/02/20 10:27:11;;;;;;;;;;;;;;;0.50;60.59;101161.95;109349;1279;22456;-59
2024/02/20 10:30:15;;;;;;;;;;;;;;;0.52;60.10;101163.76;109335;1280;22948;-48
2024/02/20 10:33:11;;;;;;;;;;;;;;;0.47;60.48;101157.82;109235;1280;22936;-48
2024/02/20 10:35:47;;;;;;;;;;;;;;;0.43;60.69;101155.04;109371;1280;22466;-58
2024/02/20 10:38:18;;;;;;;;;;;;;;;0.43;60.48;101154.86;109436;1278;22443;-50
2024/02/20 10:40:56;;;;;;;;;;;;;;;0.42;60.82;101146.21;109469;1281;22455;-49
2024/02/20 10:43:31;;;;;;;;;;;;;;;0.41;61.25;101141.23;109413;1285;23492;-49
2024/02/20 10:46:06;;;;;;;;;;;;;;;0.45;61.56;101143.48;109476;1280;22677;-58
2024/02/20 10:48:35;;;;;;;;;;;;;;;0.48;61.78;101136.95;109434;1280;22511;-46
2024/02/20 10:51:15;;;;;;;;;;;;;;;0.50;61.45;101129.87;109516;1285;23350;-56
2024/02/20 10:53:45;;;;;;;;;;;;;;;0.51;61.62;101127.31;109423;1286;22468;-57
2024/02/20 10:56:40;;;;;;;;;;;;;;;0.52;61.81;101125.68;109494;1280;23021;-47
2024/02/20 10:59:16;;;;;;;;;;;;;;;0.54;62.73;101125.25;109680;1278;22461;-50
2024/02/20 11:01:44;;;;;;;;;;;;;;;0.56;62.40;101128.09;109880;1273;22459;-51
2024/02/20 11:04:11;;;;;;;;;;;;;;;0.53;63.08;101124.01;109891;1273;23019;-48
2024/02/20 11:06:47;;;;;;;;;;;;;;;0.51;63.51;101121.68;109844;1270;22471;-49
2024/02/20 11:09:27;;;;;;;;;;;;;;;0.52;62.08;101126.67;109774;1278;22437;-52
2024/02/20 11:12:08;;;;;;;;;;;;;;;0.48;61.50;101123.39;109932;1274;22710;-47
2024/02/20 11:14:36;;;;;;;;;;;;;;;0.47;62.99;101118.69;110037;1269;23046;-58
2024/02/20 11:17:17;;;;;;;;;;;;;;;0.50;62.52;101117.86;109857;1270;22439;-54
2024/02/20 11:20:10;;;;;;;;;;;;;;;0.54;62.54;101114.09;109919;1270;22440;-55
2024/02/20 11:22:46;;;;;;;;;;;;;;;0.56;63.29;101112.79;109665;1276;23035;-56
2024/02/20 11:25:37;;;;;;;;;;;;;;;0.56;62.25;101114.02;109774;1271;22436;-47
2024/02/20 11:28:15;;;;;;;;;;;;;;;0.55;61.85;101107.25;109977;1273;22470;-56
2024/02/20 11:31:00;;;;;;;;;;;;;;;0.53;62.59;101108.73;110070;1270;22867;-46
2024/02/20 11:33:31;;;;;;;;;;;;;;;0.56;62.63;101103.55;110775;1272;22381;31
2024/02/20 11:36:01;;;;;;;;;;;;;;;0.63;63.23;101101.17;110039;1277;22492;-48
2024/02/20 11:38:28;;;;;;;;;;;;;;;0.72;62.89;101100.27;110008;1272;22575;-55
2024/02/20 11:40:55;;;;;;;;;;;;;;;0.76;62.25;101102.04;109900;1278;22496;-48
2024/02/20 11:43:27;;;;;;;;;;;;;;;0.78;61.96;101099.56;109975;1272;22468;-55
2024/02/20 11:46:06;;;;;;;;;;;;;;;0.76;61.86;101099.79;109779;1278;22498;-54
2024/02/20 11:48:37;;;;;;;;;;;;;;;0.76;62.80;101097.55;109919;1275;22531;-57
2024/02/20 11:51:07;;;;;;;;;;;;;;;0.82;62.94;101098.71;109625;1273;23202;-55
2024/02/20 11:53:34;;;;;;;;;;;;;;;0.86;62.26;101097.35;109838;1277;23358;-47
2024/02/20 11:56:02;;;;;;;;;;;;;;;0.87;62.80;101092.45;109943;1275;23195;-50
2024/02/20 11:58:30;;;;;;;;;;;;;;;0.90;62.92;101090.73;110011;1276;22534;-55
2024/02/20 12:01:05;;;;;;;;;;;;;;;0.91;62.73;101089.92;109915;1279;23218;-46
2024/02/20 12:03:36;;;;;;;;;;;;;;;0.88;62.17;101085.65;109580;1273;23241;-48
2024/02/20 12:06:07;;;;;;;;;;;;;;;0.87;62.42;101086.08;109796;1274;23429;-60
2024/02/20 12:08:44;;;;;;;;;;;;;;;0.88;62.28;101081.52;109756;1272;23287;-48
2024/02/20 12:11:16;;;;;;;;;;;;;;;0.92;61.82;101080.20;109889;1275;22905;-49
2024/02/20 12:13:52;;;;;;;;;;;;;;;0.96;61.04;101079.54;109776;1273;22456;-60
2024/02/20 12:16:22;;;;;;;;;;;;;;;0.99;61.12;101072.81;109904;1279;22853;-48
2024/02/20 12:18:49;;;;;;;;;;;;;;;1.00;60.34;101071.50;109935;1276;22448;-49
2024/02/20 12:21:17;;;;;;;;;;;;;;;1.00;60.33;101070.81;109806;1279;22535;-60
2024/02/20 12:23:50;;;;;;;;;;;;;;;0.99;59.93;101072.79;109860;1279;22472;-49
2024/02/20 12:26:17;;;;;;;;;;;;;;;0.94;60.02;101067.39;109911;1279;22467;-49
2024/02/20 12:28:44;;;;;;;;;;;;;;;0.93;60.49;101062.86;110003;1272;23428;-60
2024/02/20 12:31:17;;;;;;;;;;;;;;;0.93;60.55;101061.65;109984;1278;23324;-60
2024/02/20 12:33:44;;;;;;;;;;;;;;;0.93;60.97;101052.73;110026;1273;23999;-59
2024/02/20 12:36:11;;;;;;;;;;;;;;;0.93;61.45;101051.90;110028;1273;23049;-49
2024/02/20 12:38:38;;;;;;;;;;;;;;;0.96;61.89;101052.73;109911;1273;22490;-59
2024/02/20 12:41:05;;;;;;;;;;;;;;;0.99;61.76;101056.16;109805;1275;22827;-47
2024/02/20 12:43:32;;;;;;;;;;;;;;;1.01;61.57;101054.17;109959;1272;22471;-59
2024/02/20 12:45:59;;;;;;;;;;;;;;;1.02;62.36;101049.23;110030;1273;22470;-60
2024/02/20 12:48:26;;;;;;;;;;;;;;;1.04;62.44;101049.89;109997;1275;23015;-48
2024/02/20 12:50:54;;;;;;;;;;;;;;;1.03;61.93;101046.24;110023;1275;22451;-59
2024/02/20 12:53:20;;;;;;;;;;;;;;;1.02;61.90;101037.91;110042;1279;23414;-59
